Time;durP1;ratioP1;P1;durP2;ratioP2;P2;SDS_P1;SDS_P2;PMS_P1;PMS_P2;Temp;Humidity;BMP_temperature;BMP_pressure;BME280_temperature;BME280_humidity;BME280_pressure;Samples;Min_cycle;Max_cycle;Signal;HPM_P1;HPM_P2
2022/12/31 00:01:21;;;;;;;8.35;5.47;;;;;;;16.23;61.27;99712.00;5072902;28;20067;-81
2022/12/31 00:03:47;;;;;;;10.30;5.72;;;;;;;16.23;60.93;99717.25;5072757;28;20025;-80
2022/12/31 00:06:18;;;;;;;9.10;5.80;;;;;;;16.24;61.08;99713.69;5072667;28;20099;-80
2022/12/31 00:08:44;;;;;;;8.95;5.93;;;;;;;16.23;60.99;99718.09;5071439;28;20032;-79
2022/12/31 00:11:10;;;;;;;8.65;5.30;;;;;;;16.25;60.85;99715.41;5071584;28;20032;-80
2022/12/31 00:13:36;;;;;;;8.25;6.05;;;;;;;16.22;61.19;99716.38;5070352;28;20028;-80
2022/12/31 00:16:10;;;;;;;7.25;5.40;;;;;;;16.21;61.19;99726.97;5072536;28;20031;-82
2022/12/31 00:18:35;;;;;;;9.13;6.25;;;;;;;16.24;61.09;99714.53;5072692;28;20029;-79
2022/12/31 00:21:08;;;;;;;7.47;5.65;;;;;;;16.25;60.90;99712.78;5072670;28;20034;-80
2022/12/31 00:23:35;;;;;;;7.80;5.75;;;;;;;16.22;61.07;99715.50;5072701;28;20574;-80
2022/12/31 00:26:02;;;;;;;9.70;6.10;;;;;;;16.20;61.02;99715.59;5071272;28;20059;-80
2022/12/31 00:28:28;;;;;;;8.48;5.50;;;;;;;16.21;61.27;99713.81;5072270;28;20029;-80
2022/12/31 00:30:53;;;;;;;8.48;6.00;;;;;;;16.20;61.14;99727.88;5072314;28;20031;-81
2022/12/31 00:33:19;;;;;;;8.68;5.40;;;;;;;16.20;61.40;99717.34;5072539;28;20036;-81
2022/12/31 00:35:44;;;;;;;10.43;6.10;;;;;;;16.18;61.31;99706.03;5072393;28;20500;-80
2022/12/31 00:38:09;;;;;;;9.15;5.88;;;;;;;16.21;61.09;99703.25;5072852;28;20028;-80
2022/12/31 00:40:35;;;;;;;6.72;5.15;;;;;;;16.19;61.31;99713.00;5072800;28;20055;-80
2022/12/31 00:43:00;;;;;;;7.20;5.15;;;;;;;16.21;61.29;99717.31;5072525;28;20024;-79
2022/12/31 00:45:25;;;;;;;7.75;5.57;;;;;;;16.23;60.91;99717.25;5071338;28;20017;-80
2022/12/31 00:47:51;;;;;;;6.75;5.20;;;;;;;16.21;61.12;99711.16;5071412;28;20526;-80
2022/12/31 00:50:16;;;;;;;9.23;5.10;;;;;;;16.19;61.33;99707.75;5071299;28;20025;-78
2022/12/31 00:52:42;;;;;;;8.60;5.43;;;;;;;16.17;61.33;99710.44;5072173;28;20442;-81
2022/12/31 00:55:07;;;;;;;8.38;5.75;;;;;;;16.17;61.17;99717.47;5072557;28;20141;-80
2022/12/31 00:57:33;;;;;;;6.95;5.00;;;;;;;16.17;61.25;99712.22;5072161;28;20024;-80
2022/12/31 00:59:58;;;;;;;10.30;5.40;;;;;;;16.19;61.03;99710.38;5071049;28;20371;-81
2022/12/31 01:02:23;;;;;;;9.52;6.28;;;;;;;16.20;61.08;99714.72;5072253;28;20405;-78
2022/12/31 01:04:49;;;;;;;9.18;5.78;;;;;;;16.21;61.29;99711.16;5070992;28;20470;-82
2022/12/31 01:07:14;;;;;;;6.68;5.32;;;;;;;16.17;61.37;99712.22;5072045;28;20045;-81
2022/12/31 01:09:40;;;;;;;7.50;5.70;;;;;;;16.18;61.13;99713.94;5072129;28;20036;-82
2022/12/31 01:12:05;;;;;;;9.10;5.68;;;;;;;16.20;61.08;99722.63;5072022;28;20111;-83
2022/12/31 01:14:32;;;;;;;9.13;5.85;;;;;;;16.21;60.89;99719.06;5070893;28;20036;-82
2022/12/31 01:16:58;;;;;;;8.73;5.57;;;;;;;16.21;60.98;99725.19;5072227;28;20120;-82
2022/12/31 01:19:27;;;;;;;7.65;5.63;;;;;;;16.20;60.93;99726.13;5071930;28;20031;-78
2022/12/31 01:21:53;;;;;;;8.00;5.82;;;;;;;16.18;61.12;99719.19;5070918;28;20024;-82
2022/12/31 01:24:19;;;;;;;8.00;5.70;;;;;;;16.22;60.76;99726.03;5073341;28;20024;-81
2022/12/31 01:26:45;;;;;;;7.88;5.03;;;;;;;16.22;61.02;99718.16;5075393;28;20090;-81
2022/12/31 01:29:11;;;;;;;7.90;5.63;;;;;;;16.23;60.95;99715.47;5075772;28;20024;-79
2022/12/31 01:31:37;;;;;;;8.48;6.13;;;;;;;16.22;61.13;99721.66;5075698;28;20028;-82
2022/12/31 01:34:04;;;;;;;8.65;5.22;;;;;;;16.18;60.87;99721.81;5075615;28;20032;-80
2022/12/31 01:36:31;;;;;;;7.85;5.53;;;;;;;16.17;60.99;99707.78;5075687;28;20039;-81
2022/12/31 01:38:59;;;;;;;7.40;5.70;;;;;;;16.14;61.13;99718.44;5075768;28;20038;-83
2022/12/31 01:41:29;;;;;;;6.68;5.10;;;;;;;16.16;61.02;99719.25;5075374;28;20017;-81
2022/12/31 01:44:21;;;;;;;7.45;5.60;;;;;;;16.16;61.10;99721.00;5074280;28;20032;-80
2022/12/31 01:47:12;;;;;;;8.38;5.85;;;;;;;16.17;61.01;99722.75;5033241;28;20045;-81
2022/12/31 01:49:46;;;;;;;9.13;5.28;;;;;;;16.18;61.26;99713.94;5016665;28;20060;-81
2022/12/31 01:52:18;;;;;;;7.57;5.05;;;;;;;16.16;61.27;99716.59;5033549;28;20052;-82
2022/12/31 01:55:02;;;;;;;9.93;5.70;;;;;;;16.16;61.20;99716.59;5016472;28;20124;-82
2022/12/31 01:57:28;;;;;;;8.27;5.35;;;;;;;16.15;61.22;99728.06;5033094;28;20055;-80
2022/12/31 01:59:55;;;;;;;8.02;5.22;;;;;;;16.18;61.07;99724.47;5032926;28;20037;-82
2022/12/31 02:02:21;;;;;;;8.23;5.53;;;;;;;16.13;61.24;99732.50;5001571;28;20503;-80
2022/12/31 02:04:49;;;;;;;7.82;5.60;;;;;;;16.16;61.16;99727.13;5013552;28;20046;-79
2022/12/31 02:07:15;;;;;;;7.35;5.38;;;;;;;16.18;60.98;99719.19;4996740;28;20086;-80
2022/12/31 02:09:41;;;;;;;7.68;5.38;;;;;;;16.16;61.11;99726.28;5012720;28;20384;-78
2022/12/31 02:12:08;;;;;;;7.20;5.22;;;;;;;16.16;61.14;99729.78;5013224;28;20045;-82
2022/12/31 02:14:38;;;;;;;6.82;5.20;;;;;;;16.18;60.97;99727.09;5013128;28;20030;-80
2022/12/31 02:17:32;;;;;;;8.85;5.15;;;;;;;16.16;61.27;99726.28;4996569;28;20030;-80
2022/12/31 02:20:34;;;;;;;7.70;5.25;;;;;;;16.15;61.29;99719.28;4999101;28;20038;-81
2022/12/31 02:23:14;;;;;;;7.13;5.18;;;;;;;16.11;61.22;99723.81;5029223;28;20482;-81
2022/12/31 02:26:06;;;;;;;8.13;5.47;;;;;;;16.13;61.21;99721.13;5074691;28;20025;-80
2022/12/31 02:29:16;;;;;;;8.45;5.80;;;;;;;16.13;61.19;99718.50;5074715;28;20397;-81
2022/12/31 02:31:51;;;;;;;7.28;5.55;;;;;;;16.14;61.69;99720.22;5074444;28;20028;-83
2022/12/31 02:34:30;;;;;;;7.30;6.00;;;;;;;16.15;61.22;99717.53;5074674;28;20042;-80
2022/12/31 02:36:59;;;;;;;7.65;5.05;;;;;;;16.17;61.18;99712.22;5073544;28;20074;-82
2022/12/31 02:39:25;;;;;;;7.35;5.78;;;;;;;16.19;61.23;99713.00;5072834;28;20025;-80
2022/12/31 02:41:51;;;;;;;7.82;5.40;;;;;;;16.13;61.48;99707.97;5074314;28;20024;-80
2022/12/31 02:44:30;;;;;;;8.88;5.30;;;;;;;16.10;61.54;99719.47;5074235;28;20502;-81
2022/12/31 02:47:07;;;;;;;8.10;5.28;;;;;;;16.10;61.50;99722.97;5074381;28;20052;-79
2022/12/31 02:50:23;;;;;;;7.70;5.47;;;;;;;16.08;61.26;99735.31;5073140;28;20040;-80
2022/12/31 02:52:58;;;;;;;8.63;5.53;;;;;;;16.09;61.41;99721.22;5035156;28;20067;-80
2022/12/31 02:55:26;;;;;;;7.45;4.75;;;;;;;16.13;61.49;99727.25;5052207;28;20041;-82
2022/12/31 02:57:54;;;;;;;7.82;5.40;;;;;;;16.09;61.27;99725.66;5051986;28;20426;-81
2022/12/31 03:03:06;;;;;;;6.40;4.45;;;;;;;16.12;61.24;99724.69;5042849;28;20122;-81
2022/12/31 03:05:36;;;;;;;6.80;5.03;;;;;;;16.15;61.05;99724.56;5051897;28;20029;-79
2022/12/31 03:08:01;;;;;;;7.28;5.28;;;;;;;16.14;60.97;99728.09;5051430;28;20414;-80
2022/12/31 03:10:27;;;;;;;8.20;5.80;;;;;;;16.13;61.37;99724.59;5034832;28;20123;-79
2022/12/31 03:12:52;;;;;;;7.57;5.18;;;;;;;16.14;60.97;99722.84;5051755;28;20045;-80
2022/12/31 03:15:26;;;;;;;8.18;5.25;;;;;;;16.17;61.19;99717.47;5051584;28;20052;-80
2022/12/31 03:18:11;;;;;;;9.70;5.30;;;;;;;16.15;61.13;99714.91;5051522;28;20025;-81
2022/12/31 03:23:34;;;;;;;6.70;5.15;;;;;;;16.14;60.98;99715.81;5052378;28;20075;-81
2022/12/31 03:26:00;;;;;;;9.25;5.03;;;;;;;16.14;61.04;99712.31;5057444;28;20036;-81
2022/12/31 03:28:28;;;;;;;7.40;5.30;;;;;;;16.12;61.24;99715.00;5072248;28;20033;-81
2022/12/31 03:31:00;;;;;;;7.22;5.30;;;;;;;16.13;61.21;99710.59;5073569;28;20029;-82
2022/12/31 03:33:30;;;;;;;7.45;5.30;;;;;;;16.16;61.43;99705.22;5073413;28;20489;-81
2022/12/31 03:35:56;;;;;;;7.63;5.32;;;;;;;16.10;61.29;99715.06;5073216;28;20021;-81
2022/12/31 03:38:21;;;;;;;7.30;4.72;;;;;;;16.14;61.11;99709.69;5073568;28;20470;-80
2022/12/31 03:40:50;;;;;;;8.13;5.00;;;;;;;16.15;60.98;99708.75;5073291;28;20029;-80
2022/12/31 03:43:15;;;;;;;8.82;5.43;;;;;;;16.12;61.61;99703.63;5072052;28;20028;-80
2022/12/31 03:45:41;;;;;;;7.63;5.32;;;;;;;16.07;61.51;99702.00;5071853;28;20081;-81
2022/12/31 03:48:08;;;;;;;6.15;4.40;;;;;;;16.06;61.49;99695.03;5073259;28;20042;-81
2022/12/31 03:50:37;;;;;;;7.78;4.93;;;;;;;16.08;61.55;99697.63;5071630;28;20097;-80
2022/12/31 03:53:05;;;;;;;8.50;5.10;;;;;;;16.06;61.65;99695.03;5072827;28;20086;-81
2022/12/31 03:55:31;;;;;;;6.07;4.65;;;;;;;16.08;61.41;99702.88;5072650;28;20459;-80
2022/12/31 03:57:56;;;;;;;7.80;4.82;;;;;;;16.09;61.52;99697.53;5071644;28;20120;-83
2022/12/31 04:00:21;;;;;;;7.20;5.43;;;;;;;16.08;61.55;99698.47;5072686;28;20042;-80
2022/12/31 04:02:48;;;;;;;7.60;5.05;;;;;;;16.06;61.50;99713.47;5072202;28;20108;-80
2022/12/31 04:05:15;;;;;;;8.10;4.50;;;;;;;16.06;61.55;99704.69;5072394;28;20035;-79
2022/12/31 04:07:41;;;;;;;7.20;4.93;;;;;;;16.08;61.45;99703.72;5072566;28;20040;-79
2022/12/31 04:10:09;;;;;;;7.68;5.07;;;;;;;16.05;61.78;99698.59;5072382;28;20036;-79
2022/12/31 04:12:35;;;;;;;7.35;5.15;;;;;;;16.07;61.62;99696.75;5071354;28;20032;-81
2022/12/31 04:15:01;;;;;;;6.75;4.60;;;;;;;16.08;61.34;99706.34;5072478;28;20486;-79
2022/12/31 04:17:27;;;;;;;8.00;5.32;;;;;;;16.10;61.24;99701.03;5072526;28;20031;-79
2022/12/31 04:19:52;;;;;;;7.13;5.05;;;;;;;16.09;61.31;99694.91;5072031;28;20028;-80
2022/12/31 04:22:18;;;;;;;8.25;5.40;;;;;;;16.08;61.54;99702.88;5072605;28;20024;-79
2022/12/31 04:24:43;;;;;;;7.60;5.03;;;;;;;16.05;61.56;99698.59;5071274;28;20077;-80
2022/12/31 04:27:13;;;;;;;7.35;4.80;;;;;;;16.05;61.59;99698.59;5072431;28;20435;-80
2022/12/31 04:29:38;;;;;;;8.60;5.40;;;;;;;16.07;61.39;99696.75;5072367;28;20478;-80
2022/12/31 04:32:05;;;;;;;7.13;5.03;;;;;;;16.04;61.43;99686.31;5072415;28;20019;-80
2022/12/31 04:34:32;;;;;;;8.25;5.28;;;;;;;16.03;61.64;99692.50;5072185;28;20036;-79
2022/12/31 04:36:57;;;;;;;7.25;5.03;;;;;;;16.07;61.71;99694.13;5072339;28;20028;-79
2022/12/31 04:39:23;;;;;;;8.02;5.10;;;;;;;16.08;61.57;99682.66;5072173;28;20390;-80
2022/12/31 04:41:49;;;;;;;6.70;4.45;;;;;;;16.10;61.33;99686.13;5072431;28;20029;-80
2022/12/31 04:44:15;;;;;;;7.38;4.88;;;;;;;16.06;61.48;99679.25;5072563;28;20029;-80
2022/12/31 04:46:40;;;;;;;7.10;5.20;;;;;;;16.06;61.65;99673.97;5072282;28;20083;-80
2022/12/31 04:49:06;;;;;;;7.68;5.10;;;;;;;16.08;61.67;99672.13;5072209;28;20071;-80
2022/12/31 04:51:31;;;;;;;7.20;4.88;;;;;;;15.99;61.82;99679.50;5072463;28;20082;-80
2022/12/31 04:53:58;;;;;;;6.75;5.20;;;;;;;16.00;61.56;99676.84;5071092;28;20082;-79
2022/12/31 04:56:24;;;;;;;7.30;4.80;;;;;;;16.04;61.73;99674.94;5072372;28;20035;-80
2022/12/31 04:58:50;;;;;;;9.35;4.90;;;;;;;16.05;61.50;99682.78;5072914;28;20067;-81
2022/12/31 05:01:15;;;;;;;6.95;5.00;;;;;;;16.09;61.56;99692.28;5074853;28;20414;-83
2022/12/31 05:03:41;;;;;;;6.43;4.88;;;;;;;16.07;61.42;99691.47;5076176;28;20017;-80
2022/12/31 05:06:13;;;;;;;6.10;4.70;;;;;;;16.07;61.29;99696.75;5074456;28;20497;-81
2022/12/31 05:08:38;;;;;;;9.57;4.93;;;;;;;16.08;61.60;99687.94;5076019;28;20029;-80
2022/12/31 05:11:04;;;;;;;8.13;4.65;;;;;;;16.12;61.47;99693.09;5074868;28;20027;-79
2022/12/31 05:13:30;;;;;;;8.40;4.93;;;;;;;16.09;61.27;99689.63;5076024;28;20033;-82
2022/12/31 05:15:55;;;;;;;7.00;5.00;;;;;;;16.06;61.73;99700.28;5076007;28;20166;-81
2022/12/31 05:18:22;;;;;;;6.90;4.82;;;;;;;16.05;61.49;99690.69;5075545;28;20097;-81
2022/12/31 05:20:47;;;;;;;7.72;4.43;;;;;;;16.05;61.42;99693.31;5076174;28;20040;-79
2022/12/31 05:23:14;;;;;;;7.30;4.80;;;;;;;16.07;61.60;99696.75;5075854;28;20024;-80
2022/12/31 05:25:42;;;;;;;7.13;4.68;;;;;;;16.09;61.53;99694.06;5075896;28;20101;-82
2022/12/31 05:28:07;;;;;;;7.07;5.05;;;;;;;16.10;61.53;99686.13;5075856;28;20037;-80
2022/12/31 05:30:33;;;;;;;7.60;4.68;;;;;;;16.12;61.47;99677.28;5075647;28;20470;-80
2022/12/31 05:32:58;;;;;;;7.60;4.90;;;;;;;16.02;61.41;99682.88;5075295;28;20029;-80
2022/12/31 05:35:24;;;;;;;7.10;4.65;;;;;;;16.07;61.65;99691.47;5075577;28;20044;-80
2022/12/31 05:37:50;;;;;;;8.25;4.72;;;;;;;16.05;61.37;99688.06;5075751;28;20060;-81
2022/12/31 05:40:15;;;;;;;7.22;4.90;;;;;;;16.06;61.47;99684.50;5074422;28;20466;-81
2022/12/31 05:42:40;;;;;;;9.30;5.55;;;;;;;16.02;61.52;99682.06;5075697;28;20025;-80
2022/12/31 05:45:06;;;;;;;7.45;4.82;;;;;;;16.01;61.83;99678.53;5074408;28;20032;-81
2022/12/31 05:47:32;;;;;;;7.10;4.63;;;;;;;15.95;61.79;99676.13;5075055;28;20120;-80
2022/12/31 05:49:57;;;;;;;8.02;4.68;;;;;;;15.99;61.80;99680.38;5075623;28;20031;-81
2022/12/31 05:52:23;;;;;;;7.70;5.45;;;;;;;15.99;61.82;99683.03;5075333;28;20024;-81
2022/12/31 05:54:48;;;;;;;8.57;5.25;;;;;;;15.95;62.09;99682.28;5075508;28;20143;-82
2022/12/31 05:57:14;;;;;;;6.57;4.53;;;;;;;15.92;61.99;99681.47;5075560;28;20386;-81
2022/12/31 05:59:39;;;;;;;9.15;4.47;;;;;;;15.89;62.13;99678.97;5075098;28;20036;-82
2022/12/31 06:02:05;;;;;;;7.05;4.47;;;;;;;15.93;62.00;99686.72;5073637;28;20055;-82
2022/12/31 06:04:30;;;;;;;11.45;5.50;;;;;;;15.91;62.03;99688.53;5075260;28;20021;-80
2022/12/31 06:06:56;;;;;;;7.10;4.85;;;;;;;15.92;62.07;99681.47;5074970;28;20063;-79
2022/12/31 06:09:22;;;;;;;9.68;5.40;;;;;;;15.89;62.23;99686.84;5073612;28;20056;-80
2022/12/31 06:11:47;;;;;;;7.03;4.80;;;;;;;15.89;62.24;99687.69;5073671;28;20029;-81
2022/12/31 06:14:13;;;;;;;7.35;4.93;;;;;;;15.96;61.99;99678.72;5074906;28;20082;-81
2022/12/31 06:16:39;;;;;;;8.35;4.72;;;;;;;15.95;61.99;99671.75;5074825;28;20025;-83
2022/12/31 06:19:05;;;;;;;7.70;5.13;;;;;;;15.99;61.98;99674.25;5074926;28;20032;-81
2022/12/31 06:21:31;;;;;;;8.20;4.85;;;;;;;15.93;62.02;99675.34;5075008;28;20028;-81
2022/12/31 06:23:57;;;;;;;7.47;4.50;;;;;;;15.91;61.96;99666.59;5075195;28;20032;-82
2022/12/31 06:26:23;;;;;;;7.47;4.97;;;;;;;15.94;62.13;99667.38;5107396;28;20047;-82
2022/12/31 06:28:48;;;;;;;7.32;5.07;;;;;;;15.96;61.79;99668.19;5073645;28;20025;-80
2022/12/31 06:31:14;;;;;;;7.22;4.55;;;;;;;15.99;61.84;99677.75;5074330;28;20028;-80
2022/12/31 06:33:40;;;;;;;7.72;5.30;;;;;;;16.02;61.70;99672.34;5074637;28;20494;-81
2022/12/31 06:36:08;;;;;;;8.23;4.80;;;;;;;15.98;61.88;99676.00;5074509;28;20024;-83
2022/12/31 06:38:36;;;;;;;6.88;4.95;;;;;;;16.03;61.80;99665.34;5074500;28;20024;-83
2022/12/31 06:41:07;;;;;;;9.05;5.07;;;;;;;16.04;61.50;99680.22;5073198;28;20471;-81
2022/12/31 06:43:36;;;;;;;8.00;5.13;;;;;;;15.95;62.01;99668.25;5074847;28;20089;-81
2022/12/31 06:46:03;;;;;;;7.38;5.13;;;;;;;15.99;61.86;99661.97;5072873;28;20497;-80
2022/12/31 06:48:29;;;;;;;7.07;4.65;;;;;;;15.99;61.83;99667.22;5107021;28;20024;-81
2022/12/31 06:50:55;;;;;;;6.55;4.90;;;;;;;15.99;61.75;99676.88;5073175;28;20024;-82
2022/12/31 06:53:20;;;;;;;7.15;4.90;;;;;;;15.98;61.83;99686.53;5074473;28;20490;-79
2022/12/31 06:55:49;;;;;;;7.05;4.50;;;;;;;16.00;61.64;99679.47;5074171;28;20021;-81
2022/12/31 06:58:15;;;;;;;7.05;5.00;;;;;;;15.99;61.94;99683.03;5072562;28;20016;-81
2022/12/31 07:01:15;;;;;;;7.93;4.93;;;;;;;15.96;61.82;99683.97;5073015;28;20032;-80
2022/12/31 07:03:51;;;;;;;9.60;4.93;;;;;;;15.99;61.67;99690.03;5072915;28;20025;-80
2022/12/31 07:06:31;;;;;;;;;;;;;;;15.96;62.10;99683.97;5074351;28;20048;-80
2022/12/31 07:09:14;;;;;;;6.57;4.43;;;;;;;15.99;61.86;99687.41;5072627;28;19912;-83
2022/12/31 07:12:00;;;;;;;6.85;4.50;;;;;;;15.99;61.83;99688.28;5074011;28;20028;-81
2022/12/31 07:14:36;;;;;;;8.38;5.10;;;;;;;15.98;61.87;99686.53;5073652;28;20025;-82
2022/12/31 07:17:04;;;;;;;;;;;;;;;15.95;62.10;99681.41;5074334;28;20115;-79
2022/12/31 07:19:38;;;;;;;7.30;4.65;;;;;;;15.95;61.93;99681.41;5072405;28;19916;-80
2022/12/31 07:22:04;;;;;;;7.53;5.10;;;;;;;15.94;62.05;99691.06;5073349;28;20028;-81
2022/12/31 07:24:30;;;;;;;7.55;4.97;;;;;;;15.92;62.04;99684.09;5073656;28;20028;-82
2022/12/31 07:26:55;;;;;;;8.18;4.97;;;;;;;15.92;62.08;99682.38;5072064;28;20112;-81
2022/12/31 07:29:29;;;;;;;6.93;4.55;;;;;;;15.96;61.99;99685.75;5073316;28;20055;-80
2022/12/31 07:32:13;;;;;;;7.95;5.47;;;;;;;15.93;62.11;99681.44;5073458;28;20091;-81
2022/12/31 07:35:08;;;;;;;8.23;4.88;;;;;;;15.89;62.17;99686.84;5072146;28;20044;-80
2022/12/31 07:37:52;;;;;;;7.30;4.50;;;;;;;15.89;62.42;99686.84;5073475;28;20049;-82
2022/12/31 07:40:28;;;;;;;7.72;5.13;;;;;;;15.88;62.42;99674.63;5073329;28;20525;-80
2022/12/31 07:43:02;;;;;;;;;;;;;;;15.87;62.55;99678.16;5073491;28;20025;-81
2022/12/31 07:45:49;;;;;;;8.85;4.90;;;;;;;15.83;62.32;99680.91;5072130;28;20271;-82
2022/12/31 07:48:25;;;;;;;7.88;4.63;;;;;;;15.81;62.46;99684.50;5073062;28;20096;-80
2022/12/31 07:50:53;;;;;;;7.55;4.70;;;;;;;15.81;62.66;99677.47;5073203;28;20055;-80
2022/12/31 07:53:20;;;;;;;6.93;4.30;;;;;;;15.81;62.43;99671.34;5073233;28;20624;-81
2022/12/31 07:55:45;;;;;;;8.73;4.80;;;;;;;15.81;62.66;99679.22;5071824;28;20078;-83
2022/12/31 07:58:20;;;;;;;6.28;4.55;;;;;;;15.82;62.65;99666.03;5073079;28;20117;-81
2022/12/31 08:00:46;;;;;;;7.72;4.78;;;;;;;15.82;62.81;99671.28;5071704;28;20508;-80
2022/12/31 08:03:43;;;;;;;7.68;4.50;;;;;;;15.81;62.67;99669.56;5073625;28;20029;-81
2022/12/31 08:06:11;;;;;;;7.95;5.22;;;;;;;15.87;62.23;99662.38;5071909;28;20039;-80
2022/12/31 08:08:51;;;;;;;6.00;4.57;;;;;;;15.85;62.57;99657.16;5073336;28;20024;-80
2022/12/31 08:11:31;;;;;;;7.80;4.80;;;;;;;15.88;62.33;99653.56;5072126;28;20049;-80
2022/12/31 08:14:00;;;;;;;8.32;5.03;;;;;;;15.82;62.43;99650.25;5072308;28;20029;-81
2022/12/31 08:16:25;;;;;;;7.70;4.50;;;;;;;15.82;62.93;99654.63;5073559;28;20107;-80
2022/12/31 08:18:51;;;;;;;7.15;4.43;;;;;;;15.84;62.79;99658.94;5073466;28;20028;-80
2022/12/31 08:21:42;;;;;;;6.82;4.65;;;;;;;15.83;62.56;99651.94;5073277;28;20398;-81
2022/12/31 08:24:22;;;;;;;8.02;5.07;;;;;;;15.83;62.70;99628.28;5072589;28;20031;-81
2022/12/31 08:26:59;;;;;;;6.30;4.20;;;;;;;15.83;62.75;99646.69;5071453;28;20070;-80
2022/12/31 08:30:01;;;;;;;8.07;4.38;;;;;;;15.81;62.81;99653.78;5071258;28;20063;-81
2022/12/31 08:32:36;;;;;;;7.65;4.93;;;;;;;15.83;62.71;99656.34;5071699;28;20020;-81
2022/12/31 08:35:01;;;;;;;6.93;4.53;;;;;;;15.84;62.90;99658.09;5070618;28;20498;-81
2022/12/31 08:37:39;;;;;;;8.27;4.40;;;;;;;15.81;62.93;99643.25;5072745;28;20098;-80
2022/12/31 08:40:15;;;;;;;6.72;4.53;;;;;;;15.87;62.86;99657.13;5072125;28;20118;-79
2022/12/31 08:42:58;;;;;;;8.00;4.65;;;;;;;15.86;62.78;99663.28;5072426;28;20025;-80
2022/12/31 08:45:36;;;;;;;8.30;4.57;;;;;;;15.85;62.83;99649.28;5072574;28;20103;-80
2022/12/31 08:48:11;;;;;;;8.90;4.63;;;;;;;15.90;62.50;99657.00;5072408;28;20047;-81
2022/12/31 08:50:37;;;;;;;7.45;4.57;;;;;;;15.88;62.81;99649.13;5072468;28;20021;-81
2022/12/31 08:53:03;;;;;;;8.07;4.78;;;;;;;15.90;62.75;99654.34;5072465;28;20021;-81
2022/12/31 08:55:29;;;;;;;7.18;4.90;;;;;;;15.84;62.88;99658.94;5072050;28;20489;-80
2022/12/31 08:58:26;;;;;;;7.38;4.78;;;;;;;15.88;62.82;99656.19;5072565;28;20035;-81
2022/12/31 09:00:55;;;;;;;8.68;4.65;;;;;;;15.89;62.79;99655.28;5071096;28;20041;-82
2022/12/31 09:03:26;;;;;;;9.13;5.20;;;;;;;15.85;63.08;99651.91;5072284;28;20060;-82
2022/12/31 09:05:52;;;;;;;6.80;4.30;;;;;;;15.87;62.99;99657.13;5070991;28;20082;-81
2022/12/31 09:08:25;;;;;;;9.02;4.88;;;;;;;15.91;62.84;99661.34;5071791;28;20457;-81
2022/12/31 09:11:12;;;;;;;8.50;4.93;;;;;;;15.91;63.14;99663.97;5072209;28;20063;-80
2022/12/31 09:13:56;;;;;;;7.10;4.72;;;;;;;15.92;63.02;99655.16;5072379;28;20032;-82
2022/12/31 09:16:37;;;;;;;9.40;5.07;;;;;;;15.88;62.96;99654.41;5071306;28;20060;-79
2022/12/31 09:19:02;;;;;;;7.55;4.10;;;;;;;15.91;62.95;99658.69;5071955;28;20539;-81
2022/12/31 09:21:28;;;;;;;7.30;4.72;;;;;;;15.91;62.98;99658.69;5072175;28;20020;-79
2022/12/31 09:23:54;;;;;;;8.55;4.35;;;;;;;15.91;63.16;99664.84;5072002;28;20078;-82
2022/12/31 09:26:56;;;;;;;7.60;5.20;;;;;;;15.92;63.02;99663.94;5072241;28;20504;-81
2022/12/31 09:29:50;;;;;;;8.75;4.20;;;;;;;15.95;63.17;99657.72;5070981;28;20520;-81
2022/12/31 09:32:48;;;;;;;7.45;4.50;;;;;;;15.94;63.34;99666.53;5071048;28;20035;-81
2022/12/31 09:35:44;;;;;;;5.75;3.97;;;;;;;15.97;62.88;99667.28;5072226;28;20074;-81
2022/12/31 09:38:30;;;;;;;7.90;3.95;;;;;;;15.98;63.05;99668.13;5062933;28;20083;-81
2022/12/31 09:40:58;;;;;;;6.90;4.53;;;;;;;16.01;62.98;99670.66;5072225;28;20482;-81
2022/12/31 09:43:45;;;;;;;8.30;4.90;;;;;;;16.02;63.07;99674.16;5072388;28;20486;-82
2022/12/31 09:46:16;;;;;;;6.72;4.50;;;;;;;16.02;62.82;99682.88;5074937;28;20028;-80
2022/12/31 09:48:51;;;;;;;10.82;5.25;;;;;;;16.05;62.66;99656.47;5075620;28;20146;-82
2022/12/31 09:51:37;;;;;;;8.43;4.85;;;;;;;16.06;62.74;99679.25;5075688;28;20033;-82
2022/12/31 09:54:21;;;;;;;8.23;4.97;;;;;;;16.08;62.42;99679.19;5075407;28;20081;-85
2022/12/31 09:56:56;;;;;;;7.50;4.72;;;;;;;16.09;62.58;99671.22;5074626;28;20115;-82
2022/12/31 09:59:48;;;;;;;6.57;4.13;;;;;;;16.12;62.43;99667.59;5076072;28;20024;-85
2022/12/31 10:02:44;;;;;;;6.55;4.35;;;;;;;16.12;62.72;99672.88;5076109;28;20028;-86
2022/12/31 10:05:24;;;;;;;8.07;5.07;;;;;;;16.12;62.79;99672.03;5075993;28;20086;-85
2022/12/31 10:08:05;;;;;;;8.95;5.15;;;;;;;16.12;62.83;99677.28;5075357;28;20442;-85
2022/12/31 10:10:43;;;;;;;5.97;4.25;;;;;;;16.13;62.73;99668.47;5075817;28;20448;-85
2022/12/31 10:13:38;;;;;;;5.97;4.57;;;;;;;16.12;62.88;99687.81;5075656;28;20033;-80
2022/12/31 10:16:19;;;;;;;7.45;4.53;;;;;;;16.15;62.44;99678.03;5075528;28;20543;-81
2022/12/31 10:18:56;;;;;;;6.07;4.30;;;;;;;16.15;62.73;99690.34;5075313;28;20056;-83
2022/12/31 10:21:44;;;;;;;8.10;5.03;;;;;;;16.17;62.60;99685.88;5074898;28;20032;-82
2022/12/31 10:24:47;;;;;;;6.55;4.07;;;;;;;16.17;62.65;99680.63;5075162;28;20048;-83
2022/12/31 10:27:33;;;;;;;6.75;4.40;;;;;;;16.19;62.48;99673.50;5074891;28;20111;-84
2022/12/31 10:30:13;;;;;;;;;;;;;;;16.20;62.42;99691.03;5075159;28;20029;-83
2022/12/31 10:32:39;;;;;;;6.45;4.25;;;;;;;16.19;62.31;99684.91;5073799;28;19962;-83
2022/12/31 10:35:13;;;;;;;8.00;4.45;;;;;;;16.23;62.16;99688.28;5075058;28;20029;-82
2022/12/31 10:37:46;;;;;;;6.78;4.60;;;;;;;16.21;62.44;99688.34;5074358;28;20046;-84
2022/12/31 10:40:52;;;;;;;9.23;4.72;;;;;;;16.23;62.21;99688.28;5074471;28;20036;-83
2022/12/31 10:43:57;;;;;;;6.60;4.50;;;;;;;16.24;62.22;99692.63;5032863;28;20116;-85
2022/12/31 10:46:34;;;;;;;8.35;4.68;;;;;;;16.26;62.41;99684.69;5016848;28;20037;-85
2022/12/31 10:49:24;;;;;;;7.60;5.03;;;;;;;16.25;62.54;99699.63;5016567;28;20534;-85
2022/12/31 10:52:22;;;;;;;8.75;5.22;;;;;;;16.26;62.18;99700.47;5032665;28;20049;-84
2022/12/31 10:54:59;;;;;;;8.15;4.93;;;;;;;16.25;62.43;99699.63;5016666;28;20462;-84
2022/12/31 10:57:33;;;;;;;7.53;4.82;;;;;;;16.26;62.46;99703.97;5032477;28;20553;-85
2022/12/31 11:00:08;;;;;;;7.90;5.05;;;;;;;16.25;62.30;99704.88;5016134;28;20418;-83
2022/12/31 11:02:39;;;;;;;8.02;4.70;;;;;;;16.27;62.27;99695.13;5028440;28;20124;-84
2022/12/31 11:05:38;;;;;;;7.38;4.75;;;;;;;16.29;62.14;99690.69;5052446;28;20037;-80
2022/12/31 11:08:18;;;;;;;6.72;4.22;;;;;;;16.29;62.07;99695.97;5052470;28;20041;-85
2022/12/31 11:11:37;;;;;;;7.10;4.88;;;;;;;16.29;62.54;99674.03;5052883;28;20033;-85
2022/12/31 11:14:19;;;;;;;8.48;4.60;;;;;;;16.29;62.45;99685.44;4954370;29;20043;-85
2022/12/31 11:17:28;;;;;;;6.45;4.47;;;;;;;16.30;62.24;99687.13;4954383;29;20122;-84
2022/12/31 11:19:53;;;;;;;6.63;4.47;;;;;;;16.30;62.17;99681.88;4928532;29;20090;-85
2022/12/31 11:22:42;;;;;;;6.45;4.10;;;;;;;16.30;62.49;99692.41;4954625;29;20065;-82
2022/12/31 11:25:10;;;;;;;7.40;4.07;;;;;;;16.32;62.21;99690.56;4954331;28;20031;-85
2022/12/31 11:28:16;;;;;;;7.32;4.68;;;;;;;16.31;62.15;99688.84;4954548;29;20067;-85
2022/12/31 11:31:11;;;;;;;7.05;4.25;;;;;;;16.32;62.13;99698.47;4954295;28;20057;-86
2022/12/31 11:34:06;;;;;;;7.15;4.35;;;;;;;16.33;62.40;99708.06;4954010;29;20087;-85
2022/12/31 11:37:12;;;;;;;7.25;4.30;;;;;;;16.34;62.31;99701.91;4953712;29;20046;-84
2022/12/31 11:39:52;;;;;;;7.47;4.90;;;;;;;16.33;62.46;99687.00;4970273;28;20102;-83
2022/12/31 11:42:25;;;;;;;7.47;4.85;;;;;;;16.34;62.45;99686.13;4954364;28;20047;-84
2022/12/31 11:45:02;;;;;;;6.45;4.13;;;;;;;16.34;62.40;99675.56;4954390;28;20062;-82
2022/12/31 11:48:10;;;;;;;7.65;4.25;;;;;;;16.36;62.62;99679.00;4969681;28;20046;-83
2022/12/31 11:51:04;;;;;;;6.78;4.50;;;;;;;16.37;62.24;99667.53;5012440;28;20064;-85
2022/12/31 11:53:42;;;;;;;8.27;4.25;;;;;;;16.38;62.53;99671.03;5012355;28;20050;-85
2022/12/31 11:56:19;;;;;;;6.05;4.05;;;;;;;16.37;62.53;99662.28;5021062;28;20080;-85
2022/12/31 11:58:49;;;;;;;6.47;4.63;;;;;;;16.40;62.13;99670.97;5073655;28;20547;-86
2022/12/31 12:01:23;;;;;;;8.10;4.47;;;;;;;16.38;62.18;99668.41;5073496;28;20032;-84
2022/12/31 12:03:49;;;;;;;7.10;4.20;;;;;;;16.41;62.47;99675.34;5072435;28;20390;-83
2022/12/31 12:06:22;;;;;;;7.22;4.38;;;;;;;16.42;62.35;99671.78;5073189;28;20028;-85
2022/12/31 12:08:49;;;;;;;7.03;4.15;;;;;;;16.41;62.29;99668.28;5073726;28;20075;-85